createdAt,value
2023-02-17T00:01:35.045Z,17.4
2023-02-17T00:07:40.820Z,17.4
2023-02-17T00:13:46.541Z,17.4
2023-02-17T00:19:52.120Z,17.4
2023-02-17T00:25:57.901Z,17.4
2023-02-17T00:32:03.568Z,17.4
2023-02-17T00:38:09.462Z,17.4
2023-02-17T00:44:15.104Z,17.4
2023-02-17T00:50:19.903Z,17.4
2023-02-17T00:56:25.211Z,17.4
2023-02-17T01:02:30.903Z,17.4
2023-02-17T01:08:36.696Z,17.4
2023-02-17T01:14:42.478Z,17.4
2023-02-17T01:20:48.247Z,17.4
2023-02-17T01:26:53.626Z,17.4
2023-02-17T01:32:58.931Z,17.4
2023-02-17T01:39:04.263Z,17.3
2023-02-17T01:45:09.798Z,17.3
2023-02-17T01:51:15.470Z,17.3
2023-02-17T01:57:21.062Z,17.3
2023-02-17T02:03:27.676Z,17.3
2023-02-17T02:09:33.435Z,17.3
2023-02-17T02:15:39.026Z,17.3
2023-02-17T02:21:44.789Z,17.3
2023-02-17T02:27:50.235Z,17.3
2023-02-17T02:33:55.329Z,17.2
2023-02-17T02:40:00.545Z,17.2
2023-02-17T02:46:06.230Z,17.2
2023-02-17T02:52:12.854Z,17.2
2023-02-17T02:58:18.707Z,17.2
2023-02-17T03:04:24.283Z,17.2
2023-02-17T03:10:29.968Z,17.1
2023-02-17T03:16:35.820Z,17.1
2023-02-17T03:22:41.342Z,17.1
2023-02-17T03:28:46.783Z,17.1
2023-02-17T03:34:51.871Z,17.1
2023-02-17T03:40:56.879Z,17.1
2023-02-17T03:47:02.256Z,17.1
2023-02-17T03:53:07.831Z,17.1
2023-02-17T03:59:13.322Z,17
2023-02-17T04:05:19.217Z,17
2023-02-17T04:11:25.080Z,17
2023-02-17T04:17:30.649Z,17
2023-02-17T04:23:36.029Z,17
2023-02-17T04:29:41.988Z,17
2023-02-17T04:35:47.372Z,17
2023-02-17T04:41:52.401Z,17
2023-02-17T04:47:57.970Z,16.9
2023-02-17T04:54:03.319Z,17
2023-02-17T05:00:08.725Z,17.2
2023-02-17T05:06:14.421Z,17.3
2023-02-17T05:12:19.757Z,17.5
2023-02-17T05:18:25.535Z,17.5
2023-02-17T05:24:31.120Z,17.6
2023-02-17T05:30:36.675Z,17.6
2023-02-17T05:36:41.837Z,17.6
2023-02-17T05:42:47.228Z,17.6
2023-02-17T05:48:52.786Z,17.6
2023-02-17T05:54:58.020Z,17.6
2023-02-17T06:01:03.310Z,17.6
2023-02-17T06:07:08.140Z,17.6
2023-02-17T06:13:13.724Z,17.5
2023-02-17T06:19:19.722Z,17.5
2023-02-17T06:25:25.395Z,17.5
2023-02-17T06:31:30.933Z,17.6
2023-02-17T06:37:36.829Z,17.5
2023-02-17T06:43:42.306Z,17.6
2023-02-17T06:49:47.675Z,17.5
2023-02-17T06:55:53.463Z,17.5
2023-02-17T07:02:01.086Z,17.5
2023-02-17T07:08:07.537Z,17.5
2023-02-17T07:14:13.483Z,17.5
2023-02-17T07:20:18.896Z,17.5
2023-02-17T07:26:24.314Z,17.5
2023-02-17T07:32:30.066Z,17.5
2023-02-17T07:38:35.614Z,17.5
2023-02-17T07:44:40.977Z,17.5
2023-02-17T07:50:46.870Z,17.5
2023-02-17T07:56:52.541Z,17.5
2023-02-17T08:02:58.249Z,17.5
2023-02-17T08:09:04.211Z,17.5
2023-02-17T08:15:09.456Z,17.5
2023-02-17T08:21:14.330Z,17.5
2023-02-17T08:27:20.417Z,17.6
2023-02-17T08:33:26.042Z,17.6
2023-02-17T08:39:31.517Z,17.7
2023-02-17T08:45:36.679Z,17.7
2023-02-17T08:51:42.189Z,17.7
2023-02-17T08:57:47.601Z,17.7
2023-02-17T09:03:52.713Z,17.7
2023-02-17T09:09:57.951Z,17.7
2023-02-17T09:16:03.196Z,17.7
2023-02-17T09:22:10.180Z,17.7
2023-02-17T09:28:33.878Z,17.7
2023-02-17T09:34:39.417Z,17.7
2023-02-17T09:40:44.840Z,17.7
2023-02-17T09:47:00.758Z,17.7
2023-02-17T09:53:06.470Z,17.7
2023-02-17T09:59:12.848Z,17.7
2023-02-17T10:05:18.639Z,17.6
2023-02-17T10:11:24.339Z,17.7
2023-02-17T10:17:30.105Z,17.7
2023-02-17T10:23:35.683Z,17.7
2023-02-17T10:29:41.650Z,17.7
2023-02-17T10:35:47.222Z,17.7
2023-02-17T10:41:52.065Z,17.7
2023-02-17T10:47:57.610Z,17.6
2023-02-17T10:54:02.972Z,17.7
2023-02-17T11:00:08.544Z,17.7
2023-02-17T11:06:13.841Z,17.7
2023-02-17T11:12:18.602Z,17.7
2023-02-17T11:18:23.613Z,17.7
2023-02-17T11:24:29.217Z,17.7
2023-02-17T11:30:34.590Z,17.8
2023-02-17T11:36:40.379Z,17.7
2023-02-17T11:42:45.920Z,17.8
2023-02-17T11:48:51.633Z,17.8
2023-02-17T11:54:57.193Z,17.8
2023-02-17T12:01:02.772Z,17.8
2023-02-17T12:07:07.928Z,17.8
2023-02-17T12:13:13.315Z,17.8
2023-02-17T12:19:19.078Z,17.8
2023-02-17T12:25:24.652Z,17.8
2023-02-17T12:31:30.453Z,17.8
2023-02-17T12:37:36.805Z,17.8
2023-02-17T12:43:42.186Z,17.8
2023-02-17T12:49:50.503Z,17.8
2023-02-17T12:55:56.078Z,17.8
2023-02-17T13:02:01.479Z,17.8
2023-02-17T13:08:07.338Z,17.8
2023-02-17T13:14:12.914Z,17.8
2023-02-17T13:20:18.272Z,17.8
2023-02-17T13:26:23.280Z,17.8
2023-02-17T13:32:28.667Z,17.8
2023-02-17T13:38:33.973Z,17.8
2023-02-17T13:44:39.554Z,17.8
2023-02-17T13:50:45.532Z,17.8
2023-02-17T13:56:51.320Z,17.8
2023-02-17T14:02:56.661Z,17.8
2023-02-17T14:09:02.250Z,17.8
2023-02-17T14:15:07.482Z,17.8
2023-02-17T14:21:12.853Z,17.8
2023-02-17T14:27:18.540Z,17.9
2023-02-17T14:33:24.388Z,17.9
2023-02-17T14:39:29.763Z,17.9
2023-02-17T14:45:35.731Z,18
2023-02-17T14:51:41.467Z,18
2023-02-17T14:57:46.872Z,18
2023-02-17T15:03:52.796Z,18
2023-02-17T15:09:58.573Z,18
2023-02-17T15:16:04.530Z,18
2023-02-17T15:22:10.947Z,18
2023-02-17T15:28:16.519Z,18
2023-02-17T15:34:22.286Z,18
2023-02-17T15:40:28.270Z,18
2023-02-17T15:46:33.934Z,18
2023-02-17T15:52:39.423Z,18
2023-02-17T15:58:45.033Z,18
2023-02-17T16:04:49.624Z,18
2023-02-17T16:10:54.347Z,18
2023-02-17T16:17:00.152Z,18
2023-02-17T16:23:05.509Z,17.9
2023-02-17T16:29:10.806Z,17.9
2023-02-17T16:35:16.840Z,17.9
2023-02-17T16:41:22.759Z,17.9
2023-02-17T16:47:28.333Z,17.9
2023-02-17T16:53:34.529Z,17.9
2023-02-17T16:59:39.887Z,17.9
2023-02-17T17:05:45.250Z,17.9
2023-02-17T17:11:50.455Z,17.9
2023-02-17T17:17:56.003Z,17.9
2023-02-17T17:24:01.771Z,17.9
2023-02-17T17:30:07.756Z,17.9
2023-02-17T17:36:12.968Z,17.9
2023-02-17T17:42:17.923Z,17.9
2023-02-17T17:48:23.228Z,17.9
2023-02-17T17:54:28.605Z,17.9
2023-02-17T18:00:34.256Z,17.9
2023-02-17T18:06:39.220Z,17.9
2023-02-17T18:12:44.551Z,17.9
2023-02-17T18:18:50.254Z,17.9
2023-02-17T18:24:55.922Z,17.9
2023-02-17T18:31:01.187Z,17.9
2023-02-17T18:37:08.110Z,18
2023-02-17T18:43:13.667Z,17.9
2023-02-17T18:49:18.998Z,17.9
2023-02-17T18:55:24.299Z,17.9
2023-02-17T19:01:30.763Z,17.9
2023-02-17T19:07:36.695Z,17.9
2023-02-17T19:13:42.263Z,17.9
2023-02-17T19:19:48.231Z,17.9
2023-02-17T19:25:54.029Z,17.9
2023-02-17T19:31:59.769Z,17.9
2023-02-17T19:38:05.473Z,17.9
2023-02-17T19:44:11.330Z,17.9
2023-02-17T19:50:17.745Z,17.9
2023-02-17T19:56:23.816Z,17.8
2023-02-17T20:02:29.514Z,17.9
2023-02-17T20:08:35.070Z,17.9
2023-02-17T20:14:40.862Z,17.8
2023-02-17T20:20:46.427Z,17.9
2023-02-17T20:26:51.784Z,17.8
2023-02-17T20:32:57.035Z,17.9
2023-02-17T20:39:02.937Z,17.9
2023-02-17T20:45:08.381Z,17.9
2023-02-17T20:51:14.287Z,17.8
2023-02-17T20:57:20.060Z,17.8
2023-02-17T21:03:25.839Z,17.8
2023-02-17T21:09:31.719Z,17.8
2023-02-17T21:15:36.854Z,17.8
2023-02-17T21:21:42.350Z,17.8
2023-02-17T21:27:47.579Z,17.8
2023-02-17T21:33:53.152Z,17.8
2023-02-17T21:39:58.715Z,17.8
2023-02-17T21:46:04.394Z,17.8
2023-02-17T21:52:10.461Z,17.8
2023-02-17T21:58:15.851Z,17.8
2023-02-17T22:04:21.310Z,17.8
2023-02-17T22:10:27.160Z,17.8
2023-02-17T22:16:32.376Z,17.8
2023-02-17T22:22:38.684Z,17.8
2023-02-17T22:28:44.447Z,17.8
2023-02-17T22:34:50.456Z,17.8
2023-02-17T22:40:56.071Z,17.8
2023-02-17T22:47:01.590Z,17.8
2023-02-17T22:53:07.361Z,17.8
2023-02-17T22:59:12.809Z,17.8
2023-02-17T23:05:17.938Z,17.8
2023-02-17T23:11:23.098Z,17.8
2023-02-17T23:17:29.022Z,17.7
2023-02-17T23:23:34.405Z,17.7
2023-02-17T23:29:39.341Z,17.7
2023-02-17T23:35:44.821Z,17.7
2023-02-17T23:41:50.383Z,17.7
2023-02-17T23:47:55.719Z,17.7
2023-02-17T23:54:01.303Z,17.7
